Time;durP1;ratioP1;P1;durP2;ratioP2;P2;SDS_P1;SDS_P2;PMS_P1;PMS_P2;Temp;Humidity;BMP_temperature;BMP_pressure;BME280_temperature;BME280_humidity;BME280_pressure;Samples;Min_cycle;Max_cycle;Signal;HPM_P1;HPM_P2
2021/08/03 00:00:23;;;;;;;8.30;3.70;;;20.50;69.00;;;;;;5097676;28;20058;-63
2021/08/03 00:02:52;;;;;;;4.55;3.25;;;20.50;69.00;;;;;;5097653;28;20472;-64
2021/08/03 00:05:25;;;;;;;5.88;3.30;;;20.50;69.10;;;;;;5098083;28;20035;-64
2021/08/03 00:08:06;;;;;;;4.53;3.20;;;20.50;69.10;;;;;;5096990;28;20039;-63
2021/08/03 00:10:31;;;;;;;4.90;2.38;;;20.50;69.00;;;;;;5098112;28;20118;-64
2021/08/03 00:13:00;;;;;;;6.05;2.85;;;20.50;69.00;;;;;;5097651;28;20115;-63
2021/08/03 00:15:27;;;;;;;3.92;2.58;;;20.60;69.00;;;;;;5097274;28;20067;-64
2021/08/03 00:17:57;;;;;;;5.18;3.28;;;20.50;69.10;;;;;;5080133;28;20413;-63
2021/08/03 00:20:27;;;;;;;7.30;3.10;;;20.50;69.40;;;;;;5099323;28;20035;-64
2021/08/03 00:23:00;;;;;;;5.40;2.47;;;20.50;69.50;;;;;;5098411;28;20050;-63
2021/08/03 00:25:27;;;;;;;6.20;2.17;;;20.50;69.50;;;;;;5098891;28;20031;-64
2021/08/03 00:27:54;;;;;;;3.67;2.67;;;20.50;69.40;;;;;;5097921;28;20079;-63
2021/08/03 00:30:21;;;;;;;9.25;2.53;;;20.50;69.30;;;;;;5097215;28;20043;-63
2021/08/03 00:32:48;;;;;;;3.75;2.40;;;20.50;69.30;;;;;;5097873;28;20087;-64
2021/08/03 00:35:14;;;;;;;4.35;2.30;;;20.50;69.30;;;;;;5097580;28;20044;-63
2021/08/03 00:37:40;;;;;;;3.55;2.20;;;20.50;69.20;;;;;;5096810;28;20439;-63
2021/08/03 00:40:07;;;;;;;3.20;2.03;;;20.50;69.00;;;;;;5079089;28;20051;-64
2021/08/03 00:42:33;;;;;;;3.45;1.90;;;20.50;68.90;;;;;;5098638;28;20043;-64
2021/08/03 00:44:59;;;;;;;2.53;1.63;;;20.50;69.00;;;;;;5096675;28;20415;-64
2021/08/03 00:47:26;;;;;;;1.98;1.23;;;20.50;68.90;;;;;;5096897;28;20047;-64
2021/08/03 00:49:52;;;;;;;3.38;1.67;;;20.50;68.60;;;;;;5097161;28;20111;-64
2021/08/03 00:52:18;;;;;;;3.55;1.67;;;20.50;68.70;;;;;;5097513;28;20120;-64
2021/08/03 00:54:44;;;;;;;3.47;1.33;;;20.50;68.70;;;;;;5097215;28;20480;-64
2021/08/03 00:57:11;;;;;;;3.72;1.35;;;20.50;68.30;;;;;;5098454;28;20337;-64
2021/08/03 00:59:38;;;;;;;1.88;1.08;;;20.50;68.50;;;;;;5096746;28;20045;-63
2021/08/03 01:02:05;;;;;;;2.25;1.13;;;20.40;68.50;;;;;;5095741;28;20037;-63
2021/08/03 01:04:32;;;;;;;1.58;1.05;;;20.40;68.70;;;;;;5078658;28;20054;-64
2021/08/03 01:07:27;;;;;;;1.58;0.80;;;20.40;68.90;;;;;;5095890;28;20035;-64
2021/08/03 01:10:16;;;;;;;2.63;1.23;;;20.40;68.80;;;;;;5097278;28;20039;-64
2021/08/03 01:12:47;;;;;;;3.10;1.10;;;20.40;68.90;;;;;;5097974;28;20031;-63
2021/08/03 01:15:20;;;;;;;2.00;1.02;;;20.40;68.80;;;;;;5095949;28;20028;-64
2021/08/03 01:18:15;;;;;;;2.72;1.27;;;20.40;68.40;;;;;;5096703;28;20147;-63
2021/08/03 01:21:05;;;;;;;2.22;0.80;;;20.40;68.80;;;;;;5096833;28;20036;-64
2021/08/03 01:23:59;;;;;;;1.63;0.82;;;20.30;68.70;;;;;;5095465;28;20048;-64
2021/08/03 01:26:42;;;;;;;1.95;0.80;;;20.30;68.40;;;;;;5096240;28;20161;-63
2021/08/03 01:29:10;;;;;;;1.75;0.70;;;20.30;68.60;;;;;;5096683;28;20040;-63
2021/08/03 01:31:48;;;;;;;1.58;0.68;;;20.30;68.60;;;;;;5096589;28;20054;-63
2021/08/03 01:34:17;;;;;;;1.27;0.77;;;20.30;68.40;;;;;;5094562;28;20032;-63
2021/08/03 01:36:56;;;;;;;1.00;0.70;;;20.30;68.60;;;;;;5096530;28;20546;-63
2021/08/03 01:39:31;;;;;;;0.80;0.60;;;20.30;68.50;;;;;;5095044;28;20114;-63
2021/08/03 01:41:59;;;;;;;2.10;0.90;;;20.30;68.60;;;;;;5097334;28;20036;-63
2021/08/03 01:44:30;;;;;;;1.70;0.65;;;20.30;68.70;;;;;;5095158;28;20044;-64
2021/08/03 01:46:58;;;;;;;1.45;0.82;;;20.30;69.00;;;;;;5096911;28;20389;-63
2021/08/03 01:49:24;;;;;;;3.30;1.05;;;20.30;68.90;;;;;;5095104;28;20827;-63
2021/08/03 01:51:51;;;;;;;1.35;0.63;;;20.20;68.10;;;;;;5095286;28;20161;-63
2021/08/03 01:54:18;;;;;;;1.85;0.70;;;20.20;68.70;;;;;;5096083;28;20047;-63
2021/08/03 01:56:46;;;;;;;3.10;0.60;;;20.10;69.60;;;;;;5096830;28;20073;-64
2021/08/03 01:59:12;;;;;;;0.90;0.50;;;20.10;69.30;;;;;;5095172;28;22178;-63
2021/08/03 02:01:40;;;;;;;2.58;0.75;;;20.10;69.30;;;;;;5095818;28;20050;-63
2021/08/03 02:04:07;;;;;;;1.42;0.65;;;20.10;68.80;;;;;;5096473;28;20044;-63
2021/08/03 02:06:36;;;;;;;3.13;0.70;;;20.00;69.50;;;;;;5095948;28;20356;-64
2021/08/03 02:09:02;;;;;;;4.20;0.60;;;20.00;69.30;;;;;;5094792;28;20035;-63
2021/08/03 02:11:31;;;;;;;0.90;0.50;;;19.90;69.60;;;;;;5097206;28;20379;-63
2021/08/03 02:13:57;;;;;;;1.70;0.60;;;19.90;69.70;;;;;;5101529;28;20042;-64
2021/08/03 02:16:24;;;;;;;2.67;1.15;;;19.90;69.60;;;;;;5100048;28;20040;-63
2021/08/03 02:18:51;;;;;;;1.83;0.75;;;19.80;68.60;;;;;;5100311;28;20115;-63
2021/08/03 02:21:22;;;;;;;2.58;0.60;;;19.70;69.50;;;;;;5099121;28;20036;-63
2021/08/03 02:23:48;;;;;;;0.93;0.43;;;19.60;70.50;;;;;;5100745;28;20039;-63
2021/08/03 02:26:15;;;;;;;1.27;0.60;;;19.70;70.80;;;;;;5099309;28;20032;-63
2021/08/03 02:28:41;;;;;;;1.25;0.60;;;19.80;70.70;;;;;;5100700;28;20441;-63
2021/08/03 02:31:24;;;;;;;1.42;0.50;;;19.80;70.50;;;;;;5099132;28;20050;-63
2021/08/03 02:33:57;;;;;;;2.60;0.80;;;19.80;70.60;;;;;;5100172;28;20081;-63
2021/08/03 02:36:28;;;;;;;1.92;0.70;;;19.80;70.50;;;;;;5100123;28;20055;-63
2021/08/03 02:39:01;;;;;;;1.27;0.50;;;19.80;70.30;;;;;;5098761;28;20058;-63
2021/08/03 02:41:30;;;;;;;1.35;0.60;;;19.90;70.40;;;;;;5082041;28;20438;-63
2021/08/03 02:43:56;;;;;;;1.73;0.98;;;19.90;69.80;;;;;;5100114;28;20086;-63
2021/08/03 02:46:24;;;;;;;1.80;0.55;;;19.90;70.00;;;;;;5098754;28;20044;-63
2021/08/03 02:49:08;;;;;;;1.63;0.40;;;19.90;70.10;;;;;;5098683;28;20035;-63
2021/08/03 02:51:36;;;;;;;3.60;0.52;;;19.90;70.20;;;;;;5098124;28;20485;-64
2021/08/03 02:54:10;;;;;;;0.98;0.50;;;19.90;70.30;;;;;;5099295;28;20656;-64
2021/08/03 02:56:38;;;;;;;1.45;0.63;;;19.90;70.30;;;;;;5082161;28;20051;-63
2021/08/03 02:59:09;;;;;;;1.17;0.65;;;19.90;69.70;;;;;;5099110;28;22168;-64
2021/08/03 03:01:38;;;;;;;2.20;0.55;;;19.90;70.00;;;;;;5099309;28;22302;-63
2021/08/03 03:04:10;;;;;;;1.80;0.40;;;19.90;70.20;;;;;;5081226;28;20472;-64
2021/08/03 03:06:38;;;;;;;1.00;0.50;;;19.90;70.30;;;;;;5099616;28;20028;-63
2021/08/03 03:09:04;;;;;;;1.23;0.35;;;19.90;70.20;;;;;;5099396;28;20088;-63
2021/08/03 03:11:32;;;;;;;1.08;0.55;;;19.90;70.20;;;;;;5086935;28;20453;-63
2021/08/03 03:14:00;;;;;;;1.27;0.50;;;19.90;70.00;;;;;;5098482;28;20134;-63
2021/08/03 03:16:28;;;;;;;1.00;0.45;;;19.90;70.10;;;;;;5098654;28;20059;-63
2021/08/03 03:18:57;;;;;;;2.40;0.40;;;19.90;70.10;;;;;;5098829;28;20073;-63
2021/08/03 03:21:27;;;;;;;1.02;0.50;;;19.90;70.20;;;;;;5081836;28;20039;-63
2021/08/03 03:23:55;;;;;;;1.50;0.40;;;19.90;70.10;;;;;;5098166;28;20046;-64
2021/08/03 03:26:26;;;;;;;0.43;0.30;;;19.90;70.30;;;;;;5099642;28;20113;-64
2021/08/03 03:28:54;;;;;;;0.75;0.30;;;19.90;70.30;;;;;;5098583;28;20078;-64
2021/08/03 03:31:21;;;;;;;1.10;0.57;;;19.90;70.40;;;;;;5098573;28;20067;-64
2021/08/03 03:33:51;;;;;;;2.08;0.60;;;19.80;70.30;;;;;;5098529;28;20132;-64
2021/08/03 03:36:21;;;;;;;2.17;0.40;;;19.80;70.20;;;;;;5081295;28;20702;-64
2021/08/03 03:38:48;;;;;;;0.90;0.30;;;19.70;70.20;;;;;;5098103;28;20031;-64
2021/08/03 03:41:15;;;;;;;3.55;0.65;;;19.60;70.60;;;;;;5099607;28;20051;-64
2021/08/03 03:43:40;;;;;;;2.38;0.32;;;19.60;70.70;;;;;;5098725;28;20024;-64
2021/08/03 03:46:15;;;;;;;1.75;0.50;;;19.50;70.60;;;;;;5098316;28;20974;-63
2021/08/03 03:48:53;;;;;;;1.63;0.40;;;19.50;70.70;;;;;;5098457;28;20035;-63
2021/08/03 03:51:25;;;;;;;1.05;0.40;;;19.50;70.70;;;;;;5098725;28;20039;-62
2021/08/03 03:53:55;;;;;;;1.60;0.50;;;19.40;71.10;;;;;;5096997;28;20088;-62
2021/08/03 03:56:29;;;;;;;0.90;0.68;;;19.40;70.90;;;;;;5099096;28;20044;-62
2021/08/03 03:58:59;;;;;;;1.00;0.40;;;19.50;71.00;;;;;;5097850;28;20467;-62
2021/08/03 04:01:25;;;;;;;1.25;0.50;;;19.40;70.90;;;;;;5097762;28;20044;-63
2021/08/03 04:03:54;;;;;;;2.45;1.10;;;19.40;71.10;;;;;;5097757;28;20036;-63
2021/08/03 04:06:20;;;;;;;2.35;0.50;;;19.40;69.70;;;;;;5099162;28;20142;-63
2021/08/03 04:08:46;;;;;;;0.82;0.40;;;19.40;70.70;;;;;;5097641;28;20547;-63
2021/08/03 04:11:16;;;;;;;2.70;0.40;;;19.40;70.90;;;;;;5098076;28;20609;-63
2021/08/03 04:13:47;;;;;;;1.15;0.30;;;19.50;70.80;;;;;;5097957;28;20024;-63
2021/08/03 04:16:14;;;;;;;2.85;1.20;;;19.50;70.70;;;;;;5096908;28;20110;-63
2021/08/03 04:18:40;;;;;;;1.05;0.35;;;19.50;70.20;;;;;;5098994;28;20454;-63
2021/08/03 04:21:07;;;;;;;1.48;0.60;;;19.50;70.70;;;;;;5098188;28;20040;-63
2021/08/03 04:23:33;;;;;;;0.75;0.40;;;19.50;70.40;;;;;;5098066;28;20043;-63
2021/08/03 04:25:59;;;;;;;0.47;0.22;;;19.60;70.40;;;;;;5097866;28;20036;-63
2021/08/03 04:28:25;;;;;;;1.77;0.35;;;19.50;70.30;;;;;;5098960;28;20043;-63
2021/08/03 04:30:50;;;;;;;1.73;0.77;;;19.50;70.30;;;;;;5097295;28;20044;-63
2021/08/03 04:33:16;;;;;;;2.92;0.47;;;19.40;70.20;;;;;;5079044;28;20503;-63
2021/08/03 04:35:43;;;;;;;3.30;0.63;;;19.40;70.30;;;;;;5097748;28;20048;-63
2021/08/03 04:38:09;;;;;;;0.82;0.52;;;19.30;70.30;;;;;;5096716;28;20035;-63
2021/08/03 04:40:34;;;;;;;0.52;0.40;;;19.30;70.40;;;;;;5096433;28;20036;-63
2021/08/03 04:43:01;;;;;;;1.35;0.80;;;19.30;70.40;;;;;;5098225;28;20433;-63
2021/08/03 04:45:29;;;;;;;0.88;0.22;;;19.20;70.40;;;;;;5097568;28;20043;-63
2021/08/03 04:47:55;;;;;;;1.75;0.50;;;19.30;70.50;;;;;;5098012;28;20101;-62
2021/08/03 04:50:26;;;;;;;1.73;0.40;;;19.30;70.50;;;;;;5078257;28;20036;-63
2021/08/03 04:52:54;;;;;;;1.30;0.50;;;19.30;70.40;;;;;;5097331;28;20054;-63
2021/08/03 04:55:20;;;;;;;0.95;0.43;;;19.30;70.30;;;;;;5077093;28;20043;-63
2021/08/03 04:57:46;;;;;;;1.80;0.60;;;19.40;70.30;;;;;;5097323;28;20039;-63
2021/08/03 05:00:13;;;;;;;0.75;0.47;;;19.40;70.30;;;;;;5098030;28;20045;-63
2021/08/03 05:02:39;;;;;;;0.75;0.40;;;19.50;70.30;;;;;;5096959;28;20049;-63
2021/08/03 05:05:06;;;;;;;1.23;0.55;;;19.50;70.10;;;;;;5079101;28;20043;-63
2021/08/03 05:07:31;;;;;;;0.80;0.60;;;19.50;70.20;;;;;;5096234;28;20043;-64
2021/08/03 05:10:19;;;;;;;0.70;0.57;;;19.50;69.90;;;;;;5080088;28;20039;-64
2021/08/03 05:12:44;;;;;;;1.23;0.60;;;19.50;70.40;;;;;;5097511;28;20119;-64
2021/08/03 05:15:10;;;;;;;0.95;0.60;;;19.50;70.70;;;;;;5079413;28;20054;-63
2021/08/03 05:17:36;;;;;;;0.95;0.65;;;19.50;70.50;;;;;;5096203;28;20028;-62
2021/08/03 05:20:03;;;;;;;2.83;0.63;;;19.50;70.20;;;;;;5097227;28;20095;-62
2021/08/03 05:22:30;;;;;;;3.17;0.70;;;19.50;69.90;;;;;;5096137;28;20056;-62
2021/08/03 05:24:56;;;;;;;1.55;0.65;;;19.50;70.00;;;;;;5096872;28;20066;-67
2021/08/03 05:27:26;;;;;;;0.77;0.52;;;19.50;70.00;;;;;;5096913;28;20044;-67
2021/08/03 05:29:52;;;;;;;2.08;1.02;;;19.50;70.00;;;;;;5096566;28;20039;-67
2021/08/03 05:32:18;;;;;;;1.55;0.73;;;19.50;69.90;;;;;;5096564;28;20039;-66
2021/08/03 05:34:45;;;;;;;2.70;0.80;;;19.50;69.90;;;;;;5096929;28;20834;-66
2021/08/03 05:37:11;;;;;;;1.55;0.63;;;19.50;69.70;;;;;;5096206;28;20044;-66
2021/08/03 05:39:37;;;;;;;1.00;0.50;;;19.50;69.70;;;;;;5096074;28;20049;-66
2021/08/03 05:42:05;;;;;;;1.90;0.73;;;19.50;69.80;;;;;;5096405;28;20035;-66
2021/08/03 05:44:32;;;;;;;4.22;0.88;;;19.50;69.90;;;;;;5096461;28;20441;-66
2021/08/03 05:46:59;;;;;;;3.45;0.60;;;19.50;70.00;;;;;;5096482;28;20039;-67
2021/08/03 05:49:25;;;;;;;2.47;0.60;;;19.50;69.90;;;;;;5095998;28;20046;-67
2021/08/03 05:51:51;;;;;;;2.67;0.70;;;19.50;70.10;;;;;;5095813;28;20144;-67
2021/08/03 05:54:16;;;;;;;2.10;0.90;;;19.50;70.10;;;;;;5096490;28;20065;-66
2021/08/03 05:56:42;;;;;;;2.15;0.70;;;19.50;69.70;;;;;;5095797;28;20046;-65
2021/08/03 05:59:08;;;;;;;2.72;0.98;;;19.60;69.90;;;;;;5096321;28;20483;-61
2021/08/03 06:01:35;;;;;;;1.92;0.70;;;19.60;70.00;;;;;;5095642;28;20047;-64
2021/08/03 06:04:01;;;;;;;2.92;0.77;;;19.60;69.80;;;;;;5095733;28;20096;-63
2021/08/03 06:06:27;;;;;;;1.40;0.52;;;19.70;69.80;;;;;;5082333;28;20408;-63
2021/08/03 06:08:53;;;;;;;1.67;0.57;;;19.70;69.70;;;;;;5094762;28;20036;-63
2021/08/03 06:11:25;;;;;;;1.35;0.60;;;19.70;69.70;;;;;;5095762;28;20384;-64
2021/08/03 06:13:57;;;;;;;1.30;0.47;;;19.80;69.60;;;;;;5097719;28;20043;-64
2021/08/03 06:16:25;;;;;;;4.33;0.70;;;19.80;69.50;;;;;;5078193;28;20046;-65
2021/08/03 06:18:53;;;;;;;2.42;0.80;;;19.80;69.30;;;;;;5096387;28;20035;-62
2021/08/03 06:21:20;;;;;;;2.63;0.70;;;19.90;69.20;;;;;;5096078;28;20067;-63
2021/08/03 06:23:48;;;;;;;4.00;0.90;;;19.90;68.90;;;;;;5095874;28;20390;-63
2021/08/03 06:26:17;;;;;;;1.80;0.50;;;19.90;68.80;;;;;;5097512;28;20039;-68
2021/08/03 06:28:46;;;;;;;3.85;0.73;;;20.00;68.80;;;;;;5096288;28;20081;-67
2021/08/03 06:31:13;;;;;;;6.63;0.95;;;20.00;68.70;;;;;;5079428;28;20040;-67
2021/08/03 06:33:39;;;;;;;5.70;0.60;;;20.10;68.50;;;;;;5096248;28;20043;-67
2021/08/03 06:36:04;;;;;;;1.55;0.43;;;20.10;68.30;;;;;;5096584;28;20024;-66
2021/08/03 06:38:30;;;;;;;3.90;1.30;;;20.10;68.20;;;;;;5098016;28;20058;-66
2021/08/03 06:41:02;;;;;;;1.33;0.40;;;20.10;68.20;;;;;;5079408;28;20116;-67
2021/08/03 06:43:31;;;;;;;1.02;0.43;;;20.10;68.10;;;;;;5083068;28;20483;-67
2021/08/03 06:46:07;;;;;;;2.20;0.65;;;20.10;67.90;;;;;;5096041;28;20059;-67
2021/08/03 06:48:48;;;;;;;3.85;0.63;;;20.20;67.90;;;;;;5094916;28;20032;-67
2021/08/03 06:51:16;;;;;;;2.67;0.55;;;20.20;67.90;;;;;;5095758;28;20040;-67
2021/08/03 06:53:45;;;;;;;1.77;0.63;;;20.30;67.70;;;;;;5095939;28;20110;-66
2021/08/03 06:56:22;;;;;;;2.30;0.88;;;20.30;67.60;;;;;;5097610;28;20028;-66
2021/08/03 06:59:10;;;;;;;2.47;0.90;;;20.40;67.30;;;;;;5066481;28;20127;-67
2021/08/03 07:01:53;;;;;;;2.95;0.40;;;20.60;66.90;;;;;;5097543;28;20036;-66
2021/08/03 07:04:21;;;;;;;;;;;20.70;66.70;;;;;;5093544;28;20069;-67
2021/08/03 07:06:49;;;;;;;2.60;0.60;;;20.90;66.90;;;;;;5090410;28;20372;-66
2021/08/03 07:09:15;;;;;;;1.45;0.50;;;21.10;65.80;;;;;;5091053;28;20036;-73
2021/08/03 07:11:42;;;;;;;4.35;0.60;;;21.50;64.80;;;;;;5091213;28;20104;-71
2021/08/03 07:14:08;;;;;;;5.90;0.82;;;21.70;63.80;;;;;;5073374;28;20035;-69
2021/08/03 07:16:38;;;;;;;4.57;0.50;;;22.00;62.90;;;;;;5092428;28;20047;-71
2021/08/03 07:19:05;;;;;;;5.80;0.60;;;22.20;61.80;;;;;;5092829;28;20036;-71
2021/08/03 07:21:31;;;;;;;4.47;0.70;;;22.40;61.20;;;;;;5093467;28;20047;-72
2021/08/03 07:23:57;;;;;;;11.20;8.15;;;22.60;60.50;;;;;;5092697;28;20126;-74
2021/08/03 07:26:25;;;;;;;8.52;5.43;;;22.90;60.10;;;;;;5092561;28;20031;-72
2021/08/03 07:28:51;;;;;;;4.05;1.23;;;23.10;59.00;;;;;;5092152;28;20028;-72
2021/08/03 07:31:17;;;;;;;4.35;1.40;;;23.20;58.20;;;;;;5093334;28;20104;-73
2021/08/03 07:33:44;;;;;;;3.83;1.00;;;23.20;57.90;;;;;;5092457;28;20039;-73
2021/08/03 07:36:09;;;;;;;3.40;0.90;;;23.10;57.80;;;;;;5092030;28;20440;-73
2021/08/03 07:38:35;;;;;;;2.70;0.65;;;23.10;57.80;;;;;;5091208;28;20050;-73
2021/08/03 07:41:01;;;;;;;5.47;0.75;;;23.00;57.60;;;;;;5092134;28;20047;-73
2021/08/03 07:43:27;;;;;;;3.25;0.73;;;23.10;57.60;;;;;;5093032;28;20536;-74
2021/08/03 07:45:53;;;;;;;2.72;0.88;;;23.20;57.50;;;;;;5092803;28;20545;-72
2021/08/03 07:48:19;;;;;;;2.65;0.60;;;23.20;57.50;;;;;;5079613;28;20039;-73
2021/08/03 07:50:45;;;;;;;3.08;0.63;;;23.20;57.40;;;;;;5091180;28;20040;-72
2021/08/03 07:53:11;;;;;;;1.55;0.52;;;23.20;57.50;;;;;;5093100;28;20079;-73
2021/08/03 07:55:36;;;;;;;1.55;0.65;;;23.40;57.50;;;;;;5091505;28;20781;-73
2021/08/03 07:58:02;;;;;;;1.40;0.50;;;23.70;57.10;;;;;;5091022;28;20052;-73
2021/08/03 08:00:28;;;;;;;1.55;0.52;;;24.00;56.50;;;;;;5092130;28;20119;-73
2021/08/03 08:02:56;;;;;;;2.70;0.70;;;24.30;56.20;;;;;;5091878;28;20039;-73
2021/08/03 08:05:22;;;;;;;2.85;0.50;;;24.50;55.60;;;;;;5091238;28;20912;-74
2021/08/03 08:07:48;;;;;;;3.00;0.85;;;24.70;55.10;;;;;;5091247;28;20043;-73
2021/08/03 08:10:13;;;;;;;1.85;0.47;;;24.60;55.30;;;;;;5077193;28;20115;-73
2021/08/03 08:12:39;;;;;;;1.55;0.60;;;24.40;55.00;;;;;;5099042;28;20032;-72
2021/08/03 08:15:05;;;;;;;1.55;0.35;;;24.20;55.20;;;;;;5081179;28;20032;-72
2021/08/03 08:17:31;;;;;;;1.17;0.43;;;24.10;55.20;;;;;;5098105;28;20642;-72
2021/08/03 08:19:57;;;;;;;2.15;0.60;;;23.90;55.30;;;;;;5097569;28;20042;-72
2021/08/03 08:22:23;;;;;;;4.45;0.73;;;23.70;56.00;;;;;;5098799;28;20077;-72
2021/08/03 08:24:49;;;;;;;2.65;1.10;;;23.60;56.80;;;;;;5080809;28;20377;-72
2021/08/03 08:27:14;;;;;;;5.50;1.00;;;23.50;57.30;;;;;;5098802;28;20451;-72
2021/08/03 08:29:41;;;;;;;4.40;0.68;;;23.40;56.50;;;;;;5090984;28;20055;-72
2021/08/03 08:32:08;;;;;;;2.30;0.90;;;23.20;56.70;;;;;;5099228;28;20036;-72
2021/08/03 08:34:33;;;;;;;2.47;0.93;;;23.20;57.00;;;;;;5085945;28;20047;-72
2021/08/03 08:36:59;;;;;;;1.83;0.75;;;23.10;57.10;;;;;;5097116;28;20931;-69
2021/08/03 08:39:25;;;;;;;2.10;0.73;;;23.10;57.10;;;;;;5098078;28;20035;-69
2021/08/03 08:41:51;;;;;;;3.25;0.88;;;23.00;57.30;;;;;;5097807;28;20122;-69
2021/08/03 08:44:19;;;;;;;3.90;1.02;;;23.00;57.60;;;;;;5098827;28;20036;-69
2021/08/03 08:46:45;;;;;;;4.20;0.70;;;23.00;57.60;;;;;;5098073;28;20044;-69
2021/08/03 08:49:14;;;;;;;5.82;1.02;;;23.10;57.40;;;;;;5080666;28;22322;-70
2021/08/03 08:51:41;;;;;;;3.10;1.15;;;23.10;57.30;;;;;;5098445;28;20039;-69
2021/08/03 08:54:07;;;;;;;2.50;0.68;;;23.00;57.50;;;;;;5079331;28;20035;-69
2021/08/03 08:56:33;;;;;;;3.85;0.93;;;22.90;57.50;;;;;;5099187;28;20032;-69
2021/08/03 08:58:59;;;;;;;4.07;0.70;;;22.80;57.50;;;;;;5081307;28;20472;-69
2021/08/03 09:01:25;;;;;;;3.95;0.98;;;22.80;57.60;;;;;;5098419;28;20032;-69
2021/08/03 09:03:51;;;;;;;3.70;0.98;;;22.80;57.60;;;;;;5098098;28;20039;-69
2021/08/03 09:06:21;;;;;;;4.10;0.70;;;22.80;57.50;;;;;;5098235;28;20043;-69
2021/08/03 09:08:49;;;;;;;3.15;0.82;;;22.80;57.40;;;;;;5097793;28;20035;-69
2021/08/03 09:11:17;;;;;;;3.25;0.75;;;22.80;57.20;;;;;;5098693;28;20038;-70
2021/08/03 09:13:54;;;;;;;8.48;0.82;;;22.80;56.90;;;;;;5097568;28;20043;-69
2021/08/03 09:16:21;;;;;;;3.63;0.70;;;22.70;57.10;;;;;;5098756;28;20096;-69
2021/08/03 09:18:48;;;;;;;6.80;0.60;;;22.70;56.90;;;;;;5078763;28;20032;-69
2021/08/03 09:21:32;;;;;;;2.25;0.52;;;22.70;56.90;;;;;;5098186;28;20915;-70
2021/08/03 09:24:00;;;;;;;2.70;0.65;;;22.70;57.00;;;;;;5096726;28;20159;-69
2021/08/03 09:26:46;;;;;;;1.05;0.60;;;22.70;56.90;;;;;;5097785;28;20574;-69
2021/08/03 09:29:14;;;;;;;4.40;0.88;;;22.80;56.80;;;;;;5078189;28;20506;-70
2021/08/03 09:31:41;;;;;;;1.95;0.45;;;22.90;56.60;;;;;;5084616;28;20383;-69
2021/08/03 09:34:13;;;;;;;1.95;0.73;;;22.90;56.30;;;;;;5096616;28;22167;-69
2021/08/03 09:36:52;;;;;;;1.77;0.60;;;23.00;55.80;;;;;;5098390;28;20110;-69
2021/08/03 09:39:47;;;;;;;1.70;0.60;;;22.90;56.30;;;;;;5099432;28;20039;-69
2021/08/03 09:42:18;;;;;;;2.08;0.50;;;22.90;56.70;;;;;;5096628;28;20085;-70
2021/08/03 09:44:45;;;;;;;3.05;0.40;;;22.90;57.00;;;;;;5097083;28;20074;-69
2021/08/03 09:47:11;;;;;;;4.88;1.17;;;23.00;56.90;;;;;;5099603;28;20120;-69
2021/08/03 09:49:39;;;;;;;2.13;0.80;;;23.20;56.60;;;;;;5095675;28;20040;-68
2021/08/03 09:52:12;;;;;;;18.88;15.48;;;23.50;56.00;;;;;;5097468;28;20042;-68
2021/08/03 09:54:38;;;;;;;20.20;13.57;;;23.70;55.90;;;;;;5097603;28;20035;-69
2021/08/03 09:57:17;;;;;;;8.52;4.75;;;23.80;55.80;;;;;;5097858;28;20118;-68
2021/08/03 09:59:43;;;;;;;4.25;1.38;;;23.80;55.40;;;;;;5096751;28;20177;-69
2021/08/03 10:02:21;;;;;;;4.65;1.50;;;23.90;54.90;;;;;;5097484;28;20051;-69
2021/08/03 10:04:48;;;;;;;13.70;1.63;;;24.10;54.50;;;;;;5096590;28;20036;-69
2021/08/03 10:07:14;;;;;;;2.35;0.90;;;24.20;54.20;;;;;;5097465;28;20040;-70
2021/08/03 10:09:43;;;;;;;6.95;1.33;;;24.40;53.80;;;;;;5097420;28;20038;-71
2021/08/03 10:12:10;;;;;;;2.80;0.70;;;24.50;53.20;;;;;;5096399;28;20189;-70
2021/08/03 10:14:35;;;;;;;4.78;0.65;;;24.40;52.80;;;;;;5077735;28;20122;-70
2021/08/03 10:17:01;;;;;;;4.25;1.20;;;24.30;52.80;;;;;;5072273;28;20062;-70
2021/08/03 10:19:41;;;;;;;5.75;0.90;;;24.20;53.10;;;;;;5098402;28;20042;-70
2021/08/03 10:22:18;;;;;;;3.83;0.80;;;24.10;52.80;;;;;;5098590;28;20038;-69
2021/08/03 10:25:01;;;;;;;2.50;1.75;;;24.20;53.00;;;;;;5062036;28;20377;-70
2021/08/03 10:27:40;;;;;;;3.90;1.15;;;24.30;52.90;;;;;;5101783;28;20035;-69
2021/08/03 10:30:06;;;;;;;3.95;1.20;;;24.40;53.00;;;;;;5079774;28;20070;-71
2021/08/03 10:32:41;;;;;;;3.15;1.48;;;24.40;52.70;;;;;;5096163;28;20119;-72
2021/08/03 10:35:18;;;;;;;8.43;1.63;;;24.30;52.90;;;;;;5099574;28;20031;-71
2021/08/03 10:37:59;;;;;;;4.00;1.30;;;24.10;52.80;;;;;;5081565;28;20503;-68
2021/08/03 10:40:43;;;;;;;3.60;1.10;;;23.90;53.00;;;;;;5100790;28;20042;-69
2021/08/03 10:43:32;;;;;;;4.57;1.15;;;23.80;53.50;;;;;;5099039;28;20039;-69
2021/08/03 10:46:07;;;;;;;3.88;1.45;;;23.70;53.50;;;;;;5087463;28;20048;-70
2021/08/03 10:48:39;;;;;;;5.43;1.35;;;23.60;53.70;;;;;;5101646;28;20042;-70
2021/08/03 10:51:15;;;;;;;4.35;1.52;;;23.60;54.20;;;;;;5100289;28;20044;-69
2021/08/03 10:54:04;;;;;;;4.30;1.35;;;23.50;54.70;;;;;;5081781;28;20110;-70
2021/08/03 10:56:59;;;;;;;4.10;1.00;;;23.50;55.00;;;;;;5099774;28;20487;-70
2021/08/03 10:59:33;;;;;;;6.55;1.08;;;23.50;55.00;;;;;;5082593;28;20070;-70
2021/08/03 11:02:01;;;;;;;3.78;0.85;;;23.40;54.70;;;;;;5098582;28;20491;-69
2021/08/03 11:04:46;;;;;;;2.47;0.82;;;23.40;55.00;;;;;;5081614;28;20032;-69
2021/08/03 11:07:27;;;;;;;1.08;0.65;;;23.40;55.10;;;;;;5091987;28;20097;-68
2021/08/03 11:09:54;;;;;;;4.63;0.82;;;23.40;54.50;;;;;;5077851;28;20035;-68
2021/08/03 11:12:46;;;;;;;4.32;0.75;;;23.30;54.30;;;;;;5091977;28;20058;-68
2021/08/03 11:15:21;;;;;;;4.63;0.90;;;23.20;54.20;;;;;;5091840;28;20032;-70
2021/08/03 11:17:56;;;;;;;3.55;0.63;;;23.10;54.10;;;;;;5091345;28;20514;-69
2021/08/03 11:20:37;;;;;;;1.77;0.60;;;23.10;54.20;;;;;;5092425;28;20032;-69
2021/08/03 11:23:17;;;;;;;1.30;0.70;;;22.90;54.20;;;;;;5092304;28;20118;-68
2021/08/03 11:25:46;;;;;;;1.60;0.82;;;22.80;55.00;;;;;;5092363;28;20038;-69
2021/08/03 11:28:17;;;;;;;2.70;1.05;;;22.80;54.90;;;;;;5092550;28;20032;-69
2021/08/03 11:30:45;;;;;;;3.05;1.00;;;22.80;54.30;;;;;;5091725;28;20024;-68
2021/08/03 11:33:13;;;;;;;2.92;0.85;;;22.70;54.30;;;;;;5099127;28;20036;-66
2021/08/03 11:35:39;;;;;;;5.70;1.08;;;22.50;54.60;;;;;;5100150;28;20668;-66
2021/08/03 11:38:08;;;;;;;2.40;0.80;;;22.50;54.50;;;;;;5099380;28;20047;-66
2021/08/03 11:40:35;;;;;;;1.77;0.68;;;22.50;54.50;;;;;;5098624;28;20038;-66
2021/08/03 11:43:02;;;;;;;2.22;0.73;;;22.50;54.80;;;;;;5099802;28;20043;-66
2021/08/03 11:45:28;;;;;;;2.78;0.70;;;22.60;55.30;;;;;;5096574;28;20052;-66
2021/08/03 11:48:00;;;;;;;2.30;0.73;;;22.80;55.50;;;;;;5100358;28;20864;-66
2021/08/03 11:50:34;;;;;;;0.77;0.50;;;23.00;54.70;;;;;;5100276;28;20492;-66
2021/08/03 11:53:11;;;;;;;0.88;0.68;;;23.10;53.70;;;;;;5099873;28;20044;-65
2021/08/03 11:55:59;;;;;;;2.22;0.55;;;23.00;53.30;;;;;;5065767;28;20047;-65
2021/08/03 11:58:27;;;;;;;3.33;0.73;;;23.00;52.50;;;;;;5099949;28;20403;-65
2021/08/03 12:00:58;;;;;;;2.35;0.63;;;23.00;52.90;;;;;;5098485;28;20032;-66
2021/08/03 12:03:35;;;;;;;3.58;1.10;;;23.10;53.20;;;;;;5097873;28;20125;-66
2021/08/03 12:06:04;;;;;;;2.50;0.75;;;23.20;53.00;;;;;;5098799;28;20039;-65
2021/08/03 12:08:39;;;;;;;1.75;0.77;;;23.10;54.00;;;;;;5100609;28;20506;-66
2021/08/03 12:11:05;;;;;;;3.00;0.88;;;23.30;54.50;;;;;;5099131;28;20035;-66
2021/08/03 12:13:35;;;;;;;3.30;1.25;;;23.50;54.90;;;;;;5099340;28;20043;-62
2021/08/03 12:16:04;;;;;;;3.13;1.38;;;23.60;52.00;;;;;;5099943;28;20028;-62
2021/08/03 12:18:39;;;;;;;2.85;0.80;;;23.70;51.80;;;;;;5080722;28;20479;-63
2021/08/03 12:21:06;;;;;;;2.25;0.82;;;23.60;52.10;;;;;;5086335;28;20089;-62
2021/08/03 12:23:39;;;;;;;2.90;0.63;;;23.70;52.60;;;;;;5099070;28;20040;-62
2021/08/03 12:26:15;;;;;;;2.00;0.73;;;23.60;52.50;;;;;;5099111;28;20032;-62
2021/08/03 12:28:43;;;;;;;1.30;0.65;;;23.60;51.90;;;;;;5098759;28;20043;-62
2021/08/03 12:31:18;;;;;;;3.45;0.70;;;23.40;52.20;;;;;;5099001;28;20118;-62
2021/08/03 12:33:45;;;;;;;0.73;0.43;;;23.40;51.80;;;;;;5099290;28;20047;-61
2021/08/03 12:36:20;;;;;;;1.17;0.60;;;23.40;51.30;;;;;;5098459;28;20518;-61
2021/08/03 12:39:09;;;;;;;1.50;0.80;;;23.40;52.00;;;;;;5099173;28;20043;-61
2021/08/03 12:41:36;;;;;;;1.45;0.63;;;23.40;51.70;;;;;;5080475;28;20066;-61
2021/08/03 12:44:02;;;;;;;2.05;0.70;;;23.40;51.80;;;;;;5098771;28;20140;-62
2021/08/03 12:46:37;;;;;;;17.58;1.80;;;23.40;51.70;;;;;;5097843;28;20054;-61
2021/08/03 12:49:04;;;;;;;2.72;0.90;;;23.50;51.50;;;;;;5080831;28;20075;-62
2021/08/03 12:51:31;;;;;;;5.35;1.52;;;23.50;52.20;;;;;;5098419;28;20042;-62
2021/08/03 12:54:16;;;;;;;1.13;0.50;;;23.60;52.50;;;;;;5098649;28;20039;-62
2021/08/03 12:56:55;;;;;;;2.25;0.60;;;23.50;52.50;;;;;;5097541;28;20088;-62
2021/08/03 12:59:40;;;;;;;6.35;1.13;;;23.40;51.60;;;;;;5099042;28;20376;-62
2021/08/03 13:02:09;;;;;;;6.97;1.77;;;23.20;53.80;;;;;;5093904;28;20047;-62